sensor_id;sensor_type;location;lat;lon;timestamp;pressure;altitude;pressure_sealevel;temperature;humidity
54369;BME280;40266;52.434;17.056;2022-08-19T00:02:04;100064.84;;;20.86;75.25
54369;BME280;40266;52.434;17.056;2022-08-19T00:05:50;100067.42;;;20.82;75.66
54369;BME280;40266;52.434;17.056;2022-08-19T00:12:39;100051.94;;;20.78;75.82
54369;BME280;40266;52.434;17.056;2022-08-19T00:16:06;100054.14;;;20.77;76.07
54369;BME280;40266;52.434;17.056;2022-08-19T00:22:51;100055.30;;;20.75;76.52
54369;BME280;40266;52.434;17.056;2022-08-19T00:26:31;100057.64;;;20.75;76.40
54369;BME280;40266;52.434;17.056;2022-08-19T00:51:55;100051.04;;;20.88;77.39
54369;BME280;40266;52.434;17.056;2022-08-19T00:56:02;100042.30;;;20.92;77.34
54369;BME280;40266;52.434;17.056;2022-08-19T01:26:23;100029.89;;;21.14;77.43
54369;BME280;40266;52.434;17.056;2022-08-19T01:37:14;100021.98;;;21.17;77.45
54369;BME280;40266;52.434;17.056;2022-08-19T01:40:41;100021.33;;;21.19;77.40
54369;BME280;40266;52.434;17.056;2022-08-19T01:43:57;100015.46;;;21.22;77.52
54369;BME280;40266;52.434;17.056;2022-08-19T01:51:38;100003.60;;;21.23;77.52
54369;BME280;40266;52.434;17.056;2022-08-19T01:54:51;100004.30;;;21.23;77.29
54369;BME280;40266;52.434;17.056;2022-08-19T02:01:35;99991.30;;;21.19;77.51
54369;BME280;40266;52.434;17.056;2022-08-19T02:04:32;99984.84;;;21.15;77.55
54369;BME280;40266;52.434;17.056;2022-08-19T02:11:48;99977.94;;;21.08;77.73
54369;BME280;40266;52.434;17.056;2022-08-19T02:15:14;99976.72;;;21.02;77.73
54369;BME280;40266;52.434;17.056;2022-08-19T02:21:54;99958.34;;;20.96;77.73
54369;BME280;40266;52.434;17.056;2022-08-19T02:25:19;99955.77;;;20.95;77.81
54369;BME280;40266;52.434;17.056;2022-08-19T02:28:28;99957.05;;;20.95;77.87
54369;BME280;40266;52.434;17.056;2022-08-19T02:31:39;99957.34;;;20.93;78.00
54369;BME280;40266;52.434;17.056;2022-08-19T02:39:44;99946.55;;;20.93;78.34
54369;BME280;40266;52.434;17.056;2022-08-19T02:46:41;99948.48;;;20.96;78.25
54369;BME280;40266;52.434;17.056;2022-08-19T02:50:13;99949.57;;;20.98;78.28
54369;BME280;40266;52.434;17.056;2022-08-19T02:57:10;99946.13;;;21.03;78.23
54369;BME280;40266;52.434;17.056;2022-08-19T03:00:45;99946.55;;;21.07;78.32
54369;BME280;40266;52.434;17.056;2022-08-19T03:04:47;99945.84;;;21.10;78.28
54369;BME280;40266;52.434;17.056;2022-08-19T03:18:43;99929.84;;;21.17;78.10
54369;BME280;40266;52.434;17.056;2022-08-19T03:22:10;99932.88;;;21.19;78.05
54369;BME280;40266;52.434;17.056;2022-08-19T03:25:36;99923.79;;;21.18;77.73
54369;BME280;40266;52.434;17.056;2022-08-19T03:28:34;99911.90;;;21.15;78.02
54369;BME280;40266;52.434;17.056;2022-08-19T03:31:50;99915.04;;;21.14;77.89
54369;BME280;40266;52.434;17.056;2022-08-19T03:42:28;99931.49;;;21.04;77.67
54369;BME280;40266;52.434;17.056;2022-08-19T03:46:13;99928.45;;;20.98;77.87
54369;BME280;40266;52.434;17.056;2022-08-19T03:49:59;99921.75;;;20.94;78.02
54369;BME280;40266;52.434;17.056;2022-08-19T03:59:38;99926.79;;;20.89;78.43
54369;BME280;40266;52.434;17.056;2022-08-19T04:03:04;99926.20;;;20.84;78.37
54369;BME280;40266;52.434;17.056;2022-08-19T04:06:19;99931.79;;;20.80;78.54
54369;BME280;40266;52.434;17.056;2022-08-19T04:09:40;99926.36;;;20.77;78.81
54369;BME280;40266;52.434;17.056;2022-08-19T04:13:07;99932.55;;;20.72;79.10
54369;BME280;40266;52.434;17.056;2022-08-19T04:15:55;99930.80;;;20.67;79.06
54369;BME280;40266;52.434;17.056;2022-08-19T04:19:03;99942.52;;;20.64;79.40
54369;BME280;40266;52.434;17.056;2022-08-19T04:22:33;99953.55;;;20.64;79.61
54369;BME280;40266;52.434;17.056;2022-08-19T04:25:19;99953.05;;;20.63;79.42
54369;BME280;40266;52.434;17.056;2022-08-19T04:28:15;99947.66;;;20.64;79.76
54369;BME280;40266;52.434;17.056;2022-08-19T04:31:18;99943.05;;;20.67;79.82
54369;BME280;40266;52.434;17.056;2022-08-19T04:34:26;99935.52;;;20.71;79.73
54369;BME280;40266;52.434;17.056;2022-08-19T04:38:12;99936.57;;;20.76;79.81
54369;BME280;40266;52.434;17.056;2022-08-19T04:40:56;99945.84;;;20.80;79.90
54369;BME280;40266;52.434;17.056;2022-08-19T04:44:02;99964.66;;;20.85;79.94
54369;BME280;40266;52.434;17.056;2022-08-19T04:47:10;99972.08;;;20.91;79.93
54369;BME280;40266;52.434;17.056;2022-08-19T04:58:12;99953.94;;;21.13;80.03
54369;BME280;40266;52.434;17.056;2022-08-19T05:13:02;99950.45;;;21.70;78.92
54369;BME280;40266;52.434;17.056;2022-08-19T05:16:10;99940.75;;;21.93;78.56
54369;BME280;40266;52.434;17.056;2022-08-19T05:19:13;99937.73;;;22.02;78.54
54369;BME280;40266;52.434;17.056;2022-08-19T05:22:18;99929.68;;;22.10;78.27
54369;BME280;40266;52.434;17.056;2022-08-19T05:26:01;99929.13;;;22.20;78.11
54369;BME280;40266;52.434;17.056;2022-08-19T05:29:20;99928.42;;;22.31;77.53
54369;BME280;40266;52.434;17.056;2022-08-19T05:32:28;99927.29;;;22.39;77.59
54369;BME280;40266;52.434;17.056;2022-08-19T05:35:12;99921.32;;;22.55;77.00
54369;BME280;40266;52.434;17.056;2022-08-19T05:38:36;99919.54;;;22.80;76.64
54369;BME280;40266;52.434;17.056;2022-08-19T05:41:40;99921.23;;;22.99;75.48
54369;BME280;40266;52.434;17.056;2022-08-19T05:44:30;99923.17;;;23.06;74.96
54369;BME280;40266;52.434;17.056;2022-08-19T05:47:58;99922.55;;;23.18;74.61
54369;BME280;40266;52.434;17.056;2022-08-19T05:58:04;99917.20;;;23.27;73.51
54369;BME280;40266;52.434;17.056;2022-08-19T06:00:55;99910.85;;;23.30;72.87
54369;BME280;40266;52.434;17.056;2022-08-19T06:04:00;99911.53;;;23.35;72.68
54369;BME280;40266;52.434;17.056;2022-08-19T06:07:04;99911.52;;;23.42;72.44
54369;BME280;40266;52.434;17.056;2022-08-19T06:10:14;99907.45;;;23.48;72.27
54369;BME280;40266;52.434;17.056;2022-08-19T06:16:43;99914.70;;;23.69;71.29
54369;BME280;40266;52.434;17.056;2022-08-19T06:19:55;99909.80;;;23.84;70.82
54369;BME280;40266;52.434;17.056;2022-08-19T06:23:47;99911.70;;;24.15;69.94
54369;BME280;40266;52.434;17.056;2022-08-19T06:26:53;99909.73;;;24.47;68.94
54369;BME280;40266;52.434;17.056;2022-08-19T06:32:51;99902.05;;;24.93;67.84
54369;BME280;40266;52.434;17.056;2022-08-19T06:35:43;99903.81;;;25.13;66.63
54369;BME280;40266;52.434;17.056;2022-08-19T06:38:35;99899.57;;;25.50;65.31
54369;BME280;40266;52.434;17.056;2022-08-19T06:41:43;99900.90;;;25.78;64.38
54369;BME280;40266;52.434;17.056;2022-08-19T06:44:35;99898.00;;;25.77;64.18
54369;BME280;40266;52.434;17.056;2022-08-19T06:47:29;99896.71;;;25.79;63.53
54369;BME280;40266;52.434;17.056;2022-08-19T06:50:13;99893.59;;;25.90;63.68
54369;BME280;40266;52.434;17.056;2022-08-19T06:52:59;99894.40;;;26.02;62.92
54369;BME280;40266;52.434;17.056;2022-08-19T06:55:56;99896.32;;;26.08;63.08
54369;BME280;40266;52.434;17.056;2022-08-19T06:58:45;99902.61;;;26.08;62.81
54369;BME280;40266;52.434;17.056;2022-08-19T07:02:03;99904.37;;;26.10;62.90
54369;BME280;40266;52.434;17.056;2022-08-19T07:04:50;99911.08;;;26.15;62.14
54369;BME280;40266;52.434;17.056;2022-08-19T07:07:40;99917.73;;;26.19;61.89
54369;BME280;40266;52.434;17.056;2022-08-19T07:10:32;99920.19;;;26.17;61.37
54369;BME280;40266;52.434;17.056;2022-08-19T07:13:19;99919.56;;;26.14;61.38
54369;BME280;40266;52.434;17.056;2022-08-19T07:16:06;99916.08;;;26.28;61.53
54369;BME280;40266;52.434;17.056;2022-08-19T07:18:54;99921.73;;;26.46;61.52
54369;BME280;40266;52.434;17.056;2022-08-19T07:21:39;99927.39;;;26.64;61.60
54369;BME280;40266;52.434;17.056;2022-08-19T07:24:24;99933.55;;;27.11;60.02
54369;BME280;40266;52.434;17.056;2022-08-19T07:30:11;99946.26;;;27.40;58.81
54369;BME280;40266;52.434;17.056;2022-08-19T07:32:58;99950.10;;;27.40;58.68
54369;BME280;40266;52.434;17.056;2022-08-19T07:36:19;99952.04;;;27.34;57.74
54369;BME280;40266;52.434;17.056;2022-08-19T07:39:31;99960.49;;;27.27;57.42
54369;BME280;40266;52.434;17.056;2022-08-19T07:47:14;99969.85;;;27.45;57.63
54369;BME280;40266;52.434;17.056;2022-08-19T07:50:49;99964.99;;;27.81;57.74
54369;BME280;40266;52.434;17.056;2022-08-19T08:01:43;99976.88;;;27.73;56.72
54369;BME280;40266;52.434;17.056;2022-08-19T08:05:05;99980.55;;;27.77;56.07
54369;BME280;40266;52.434;17.056;2022-08-19T08:08:37;99979.14;;;27.81;56.10
54369;BME280;40266;52.434;17.056;2022-08-19T08:12:04;99981.66;;;27.83;55.40
54369;BME280;40266;52.434;17.056;2022-08-19T08:15:38;99975.20;;;27.90;55.38
54369;BME280;40266;52.434;17.056;2022-08-19T08:18:56;99966.96;;;27.93;54.83
54369;BME280;40266;52.434;17.056;2022-08-19T08:25:44;99958.46;;;28.13;55.22
54369;BME280;40266;52.434;17.056;2022-08-19T08:28:43;99962.11;;;28.35;55.40
54369;BME280;40266;52.434;17.056;2022-08-19T08:31:56;99962.14;;;28.54;54.92
54369;BME280;40266;52.434;17.056;2022-08-19T08:35:24;99962.72;;;28.69;54.25
54369;BME280;40266;52.434;17.056;2022-08-19T08:38:51;99962.19;;;28.85;52.65
54369;BME280;40266;52.434;17.056;2022-08-19T08:42:10;99945.23;;;29.08;52.46
54369;BME280;40266;52.434;17.056;2022-08-19T08:52:06;99955.91;;;30.28;50.79
54369;BME280;40266;52.434;17.056;2022-08-19T08:55:23;99965.31;;;30.34;50.07
54369;BME280;40266;52.434;17.056;2022-08-19T09:02:25;99964.25;;;30.27;48.53
54369;BME280;40266;52.434;17.056;2022-08-19T09:16:06;99959.10;;;30.20;49.30
54369;BME280;40266;52.434;17.056;2022-08-19T09:19:03;99956.77;;;30.20;49.25
54369;BME280;40266;52.434;17.056;2022-08-19T09:22:10;99952.54;;;30.26;49.13
54369;BME280;40266;52.434;17.056;2022-08-19T09:25:18;99960.55;;;30.28;49.14
54369;BME280;40266;52.434;17.056;2022-08-19T09:32:31;99963.62;;;30.42;49.54
54369;BME280;40266;52.434;17.056;2022-08-19T09:35:45;99959.18;;;30.52;49.06
54369;BME280;40266;52.434;17.056;2022-08-19T09:38:36;99963.05;;;30.59;48.72
54369;BME280;40266;52.434;17.056;2022-08-19T09:42:25;99959.80;;;30.62;48.25
54369;BME280;40266;52.434;17.056;2022-08-19T09:45:21;99956.85;;;30.66;48.12
54369;BME280;40266;52.434;17.056;2022-08-19T09:48:27;99956.27;;;30.63;47.68
54369;BME280;40266;52.434;17.056;2022-08-19T09:51:52;99953.76;;;30.65;47.99
54369;BME280;40266;52.434;17.056;2022-08-19T09:54:44;99952.23;;;30.73;48.37
54369;BME280;40266;52.434;17.056;2022-08-19T09:57:50;99949.16;;;30.83;48.57
54369;BME280;40266;52.434;17.056;2022-08-19T10:01:21;99955.45;;;30.86;47.43
54369;BME280;40266;52.434;17.056;2022-08-19T10:04:05;99953.05;;;30.91;47.32
54369;BME280;40266;52.434;17.056;2022-08-19T10:07:22;99948.82;;;30.97;47.22
54369;BME280;40266;52.434;17.056;2022-08-19T10:10:30;99946.56;;;31.07;47.77
54369;BME280;40266;52.434;17.056;2022-08-19T10:13:44;99944.66;;;31.14;47.44
54369;BME280;40266;52.434;17.056;2022-08-19T10:16:37;99945.39;;;31.22;46.20
54369;BME280;40266;52.434;17.056;2022-08-19T10:19:25;99949.09;;;31.27;45.86
54369;BME280;40266;52.434;17.056;2022-08-19T10:22:40;99936.80;;;31.32;45.50
54369;BME280;40266;52.434;17.056;2022-08-19T10:25:36;99934.06;;;31.35;45.06
54369;BME280;40266;52.434;17.056;2022-08-19T10:28:37;99933.73;;;31.40;44.21
54369;BME280;40266;52.434;17.056;2022-08-19T10:31:37;99921.99;;;31.47;44.43
54369;BME280;40266;52.434;17.056;2022-08-19T10:37:39;99908.55;;;31.50;44.52
54369;BME280;40266;52.434;17.056;2022-08-19T10:40:49;99903.12;;;31.53;44.88
54369;BME280;40266;52.434;17.056;2022-08-19T10:43:44;99909.98;;;31.61;42.83
54369;BME280;40266;52.434;17.056;2022-08-19T10:46:59;99901.73;;;31.62;42.52
54369;BME280;40266;52.434;17.056;2022-08-19T10:49:49;99897.59;;;31.66;43.07
54369;BME280;40266;52.434;17.056;2022-08-19T10:53:05;99905.09;;;31.72;42.64
54369;BME280;40266;52.434;17.056;2022-08-19T10:56:14;99909.67;;;31.77;42.80
54369;BME280;40266;52.434;17.056;2022-08-19T10:59:26;99917.75;;;31.84;41.41
54369;BME280;40266;52.434;17.056;2022-08-19T11:02:21;99921.13;;;31.87;41.76
54369;BME280;40266;52.434;17.056;2022-08-19T11:05:05;99916.94;;;31.88;40.89
54369;BME280;40266;52.434;17.056;2022-08-19T11:08:31;99915.42;;;31.87;40.91
54369;BME280;40266;52.434;17.056;2022-08-19T11:11:27;99909.24;;;31.84;40.99
54369;BME280;40266;52.434;17.056;2022-08-19T11:14:31;99904.66;;;31.89;41.55
54369;BME280;40266;52.434;17.056;2022-08-19T11:17:31;99907.16;;;31.94;41.42
54369;BME280;40266;52.434;17.056;2022-08-19T11:20:15;99913.14;;;31.98;41.29
54369;BME280;40266;52.434;17.056;2022-08-19T11:23:05;99907.22;;;32.04;40.24
54369;BME280;40266;52.434;17.056;2022-08-19T11:25:59;99909.96;;;32.11;41.17
54369;BME280;40266;52.434;17.056;2022-08-19T11:28:47;99908.28;;;32.19;41.07
54369;BME280;40266;52.434;17.056;2022-08-19T11:31:33;99907.90;;;32.24;40.85
54369;BME280;40266;52.434;17.056;2022-08-19T11:34:44;99909.28;;;32.28;40.53
54369;BME280;40266;52.434;17.056;2022-08-19T11:37:27;99910.65;;;32.25;39.82
54369;BME280;40266;52.434;17.056;2022-08-19T11:41:18;99917.25;;;32.23;39.14
54369;BME280;40266;52.434;17.056;2022-08-19T11:43:36;99917.14;;;32.28;39.09
54369;BME280;40266;52.434;17.056;2022-08-19T11:46:20;99920.06;;;32.35;38.54
54369;BME280;40266;52.434;17.056;2022-08-19T11:49:05;99919.48;;;32.44;38.82
54369;BME280;40266;52.434;17.056;2022-08-19T11:52:04;99919.46;;;32.46;38.03
54369;BME280;40266;52.434;17.056;2022-08-19T11:54:47;99922.67;;;32.42;38.60
54369;BME280;40266;52.434;17.056;2022-08-19T11:57:48;99927.31;;;32.44;38.46
54369;BME280;40266;52.434;17.056;2022-08-19T12:00:56;99923.25;;;32.40;38.88
54369;BME280;40266;52.434;17.056;2022-08-19T12:03:38;99928.16;;;32.35;39.13
54369;BME280;40266;52.434;17.056;2022-08-19T12:06:54;99934.02;;;32.35;39.18
54369;BME280;40266;52.434;17.056;2022-08-19T12:10:24;99935.43;;;32.37;39.45
54369;BME280;40266;52.434;17.056;2022-08-19T12:13:15;99939.69;;;32.37;38.40
54369;BME280;40266;52.434;17.056;2022-08-19T12:19:20;99937.23;;;32.49;38.40
54369;BME280;40266;52.434;17.056;2022-08-19T12:22:16;99934.85;;;32.52;38.20
54369;BME280;40266;52.434;17.056;2022-08-19T12:25:04;99944.95;;;32.55;37.86
54369;BME280;40266;52.434;17.056;2022-08-19T12:27:55;99953.98;;;32.58;38.13
54369;BME280;40266;52.434;17.056;2022-08-19T12:30:42;99950.07;;;32.58;37.09
54369;BME280;40266;52.434;17.056;2022-08-19T12:33:40;99961.93;;;32.57;36.89
54369;BME280;40266;52.434;17.056;2022-08-19T12:37:05;99957.30;;;32.52;37.41
54369;BME280;40266;52.434;17.056;2022-08-19T12:39:51;99951.70;;;32.49;37.70
54369;BME280;40266;52.434;17.056;2022-08-19T12:42:40;99950.14;;;32.51;37.60
54369;BME280;40266;52.434;17.056;2022-08-19T12:45:49;99954.79;;;32.56;37.26
54369;BME280;40266;52.434;17.056;2022-08-19T12:48:35;99950.66;;;32.59;37.69
54369;BME280;40266;52.434;17.056;2022-08-19T12:51:42;99946.52;;;32.60;38.16
54369;BME280;40266;52.434;17.056;2022-08-19T12:54:38;99940.21;;;32.65;38.43
54369;BME280;40266;52.434;17.056;2022-08-19T12:57:44;99941.29;;;32.66;38.73
54369;BME280;40266;52.434;17.056;2022-08-19T13:00:45;99944.77;;;32.58;38.64
54369;BME280;40266;52.434;17.056;2022-08-19T13:07:49;99949.60;;;32.42;39.18
54369;BME280;40266;52.434;17.056;2022-08-19T13:10:56;99942.56;;;32.48;39.45
54369;BME280;40266;52.434;17.056;2022-08-19T13:14:02;99943.14;;;32.55;39.74
54369;BME280;40266;52.434;17.056;2022-08-19T13:17:06;99946.55;;;32.65;39.69
54369;BME280;40266;52.434;17.056;2022-08-19T13:27:16;99943.53;;;32.66;40.41
54369;BME280;40266;52.434;17.056;2022-08-19T13:30:33;99945.48;;;32.67;40.99
54369;BME280;40266;52.434;17.056;2022-08-19T13:34:04;99944.51;;;32.60;40.57
54369;BME280;40266;52.434;17.056;2022-08-19T13:37:12;99949.67;;;32.55;40.42
54369;BME280;40266;52.434;17.056;2022-08-19T13:39:55;99937.36;;;32.54;40.97
54369;BME280;40266;52.434;17.056;2022-08-19T13:42:51;99944.36;;;32.53;40.81
54369;BME280;40266;52.434;17.056;2022-08-19T13:45:40;99946.74;;;32.49;40.65
54369;BME280;40266;52.434;17.056;2022-08-19T13:48:27;99946.84;;;32.44;40.72
54369;BME280;40266;52.434;17.056;2022-08-19T13:51:33;99952.48;;;32.45;40.99
54369;BME280;40266;52.434;17.056;2022-08-19T13:54:38;99953.06;;;32.49;41.23
54369;BME280;40266;52.434;17.056;2022-08-19T13:57:20;99953.67;;;32.46;40.39
54369;BME280;40266;52.434;17.056;2022-08-19T14:00:44;99953.25;;;32.43;41.31
54369;BME280;40266;52.434;17.056;2022-08-19T14:03:41;99952.73;;;32.42;40.96
54369;BME280;40266;52.434;17.056;2022-08-19T14:06:36;99963.70;;;32.37;40.65
54369;BME280;40266;52.434;17.056;2022-08-19T14:13:19;99954.48;;;32.36;41.45
54369;BME280;40266;52.434;17.056;2022-08-19T14:16:34;99956.60;;;32.35;41.00
54369;BME280;40266;52.434;17.056;2022-08-19T14:19:37;99966.90;;;32.33;41.04
54369;BME280;40266;52.434;17.056;2022-08-19T14:22:28;99972.02;;;32.33;41.17
54369;BME280;40266;52.434;17.056;2022-08-19T14:25:21;99971.64;;;32.30;41.14
54369;BME280;40266;52.434;17.056;2022-08-19T14:28:12;99972.77;;;32.25;41.58
54369;BME280;40266;52.434;17.056;2022-08-19T14:30:59;99973.09;;;32.24;41.97
54369;BME280;40266;52.434;17.056;2022-08-19T14:34:04;99971.77;;;32.15;41.46
54369;BME280;40266;52.434;17.056;2022-08-19T14:36:57;99971.02;;;31.99;41.37
54369;BME280;40266;52.434;17.056;2022-08-19T14:39:46;99968.69;;;31.88;41.92
54369;BME280;40266;52.434;17.056;2022-08-19T14:42:42;99971.39;;;31.85;41.92
54369;BME280;40266;52.434;17.056;2022-08-19T14:45:37;99977.05;;;31.80;42.17
54369;BME280;40266;52.434;17.056;2022-08-19T14:48:41;99980.45;;;31.74;42.61
54369;BME280;40266;52.434;17.056;2022-08-19T14:51:34;99979.05;;;31.68;42.66
54369;BME280;40266;52.434;17.056;2022-08-19T14:54:32;99977.43;;;31.57;42.30
54369;BME280;40266;52.434;17.056;2022-08-19T14:57:30;99978.42;;;31.47;42.80
54369;BME280;40266;52.434;17.056;2022-08-19T15:00:37;99978.91;;;31.36;43.09
54369;BME280;40266;52.434;17.056;2022-08-19T15:03:23;99977.23;;;31.30;43.13
54369;BME280;40266;52.434;17.056;2022-08-19T15:06:07;99975.05;;;31.23;43.46
54369;BME280;40266;52.434;17.056;2022-08-19T15:08:54;99978.95;;;31.14;43.71
54369;BME280;40266;52.434;17.056;2022-08-19T15:11:43;99979.18;;;31.07;43.76
54369;BME280;40266;52.434;17.056;2022-08-19T15:14:30;99981.03;;;31.04;43.67
54369;BME280;40266;52.434;17.056;2022-08-19T15:17:17;99977.25;;;30.94;43.86
54369;BME280;40266;52.434;17.056;2022-08-19T15:20:35;99980.40;;;30.84;44.05
54369;BME280;40266;52.434;17.056;2022-08-19T15:23:20;99977.38;;;30.74;44.07
54369;BME280;40266;52.434;17.056;2022-08-19T15:26:27;99974.70;;;30.62;44.58
54369;BME280;40266;52.434;17.056;2022-08-19T15:29:19;99974.98;;;30.52;44.98
54369;BME280;40266;52.434;17.056;2022-08-19T15:32:13;99975.23;;;30.42;44.99
54369;BME280;40266;52.434;17.056;2022-08-19T15:35:17;99969.48;;;30.35;45.14
54369;BME280;40266;52.434;17.056;2022-08-19T15:38:04;99967.69;;;30.27;45.43
54369;BME280;40266;52.434;17.056;2022-08-19T15:41:18;99969.63;;;30.21;45.57
54369;BME280;40266;52.434;17.056;2022-08-19T15:44:16;99965.33;;;30.14;45.93
54369;BME280;40266;52.434;17.056;2022-08-19T15:47:45;99961.61;;;30.05;45.80
54369;BME280;40266;52.434;17.056;2022-08-19T15:50:37;99964.09;;;29.96;46.15
54369;BME280;40266;52.434;17.056;2022-08-19T15:53:36;99960.69;;;29.88;46.03
54369;BME280;40266;52.434;17.056;2022-08-19T15:56:32;99966.45;;;29.78;46.13
54369;BME280;40266;52.434;17.056;2022-08-19T15:59:43;99962.30;;;29.71;46.48
54369;BME280;40266;52.434;17.056;2022-08-19T16:02:52;99961.51;;;29.63;46.89
54369;BME280;40266;52.434;17.056;2022-08-19T16:06:04;99964.83;;;29.55;46.81
54369;BME280;40266;52.434;17.056;2022-08-19T16:09:06;99969.86;;;29.44;46.68
54369;BME280;40266;52.434;17.056;2022-08-19T16:12:11;99964.73;;;29.37;47.08
54369;BME280;40266;52.434;17.056;2022-08-19T16:15:11;99963.72;;;29.30;47.24
54369;BME280;40266;52.434;17.056;2022-08-19T16:21:56;99963.30;;;29.15;47.77
54369;BME280;40266;52.434;17.056;2022-08-19T16:24:59;99965.61;;;29.07;47.93
54369;BME280;40266;52.434;17.056;2022-08-19T16:35:03;99967.65;;;28.79;48.27
54369;BME280;40266;52.434;17.056;2022-08-19T16:41:56;99977.39;;;28.65;48.74
54369;BME280;40266;52.434;17.056;2022-08-19T16:44:53;99980.24;;;28.56;48.82
54369;BME280;40266;52.434;17.056;2022-08-19T16:48:40;99990.71;;;28.49;48.95
54369;BME280;40266;52.434;17.056;2022-08-19T16:52:14;100001.40;;;28.43;49.00
54369;BME280;40266;52.434;17.056;2022-08-19T17:15:06;100018.38;;;28.01;50.74
54369;BME280;40266;52.434;17.056;2022-08-19T17:18:34;100024.16;;;27.97;50.84
54369;BME280;40266;52.434;17.056;2022-08-19T17:21:33;100025.63;;;27.92;51.29
54369;BME280;40266;52.434;17.056;2022-08-19T17:24:39;100029.90;;;27.85;51.48
54369;BME280;40266;52.434;17.056;2022-08-19T17:27:23;100033.53;;;27.77;51.56
54369;BME280;40266;52.434;17.056;2022-08-19T17:30:29;100037.73;;;27.69;51.78
54369;BME280;40266;52.434;17.056;2022-08-19T17:33:16;100040.31;;;27.63;51.88
54369;BME280;40266;52.434;17.056;2022-08-19T17:36:22;100044.23;;;27.56;52.21
54369;BME280;40266;52.434;17.056;2022-08-19T17:45:13;100047.98;;;27.32;52.70
54369;BME280;40266;52.434;17.056;2022-08-19T17:48:16;100044.66;;;27.24;52.80
54369;BME280;40266;52.434;17.056;2022-08-19T17:54:44;100041.17;;;27.11;53.39
54369;BME280;40266;52.434;17.056;2022-08-19T17:57:47;100046.17;;;27.05;53.31
54369;BME280;40266;52.434;17.056;2022-08-19T18:00:51;100053.74;;;27.00;53.61
54369;BME280;40266;52.434;17.056;2022-08-19T18:04:03;100057.87;;;26.93;53.81
54369;BME280;40266;52.434;17.056;2022-08-19T18:07:01;100063.94;;;26.87;54.16
54369;BME280;40266;52.434;17.056;2022-08-19T18:09:59;100063.84;;;26.79;54.08
54369;BME280;40266;52.434;17.056;2022-08-19T18:16:20;100068.52;;;26.65;54.87
54369;BME280;40266;52.434;17.056;2022-08-19T18:19:44;100078.02;;;26.58;55.28
54369;BME280;40266;52.434;17.056;2022-08-19T18:23:16;100084.83;;;26.50;55.86
54369;BME280;40266;52.434;17.056;2022-08-19T18:36:49;100084.67;;;26.01;56.28
54369;BME280;40266;52.434;17.056;2022-08-19T18:40:25;100085.09;;;25.93;56.62
54369;BME280;40266;52.434;17.056;2022-08-19T18:43:49;100083.36;;;25.84;57.06
54369;BME280;40266;52.434;17.056;2022-08-19T18:51:27;100068.05;;;25.65;57.40
54369;BME280;40266;52.434;17.056;2022-08-19T18:58:18;100080.96;;;25.53;58.21
54369;BME280;40266;52.434;17.056;2022-08-19T19:01:36;100087.47;;;25.46;58.32
54369;BME280;40266;52.434;17.056;2022-08-19T19:04:24;100089.31;;;25.41;58.68
54369;BME280;40266;52.434;17.056;2022-08-19T19:07:13;100089.35;;;25.37;58.99
54369;BME280;40266;52.434;17.056;2022-08-19T19:09:56;100088.52;;;25.32;59.23
54369;BME280;40266;52.434;17.056;2022-08-19T19:12:42;100091.21;;;25.26;59.47
54369;BME280;40266;52.434;17.056;2022-08-19T19:15:36;100094.69;;;25.21;59.71
54369;BME280;40266;52.434;17.056;2022-08-19T19:18:23;100098.29;;;25.19;59.93
54369;BME280;40266;52.434;17.056;2022-08-19T19:21:08;100103.28;;;25.17;60.38
54369;BME280;40266;52.434;17.056;2022-08-19T19:24:22;100098.81;;;25.12;60.41
54369;BME280;40266;52.434;17.056;2022-08-19T19:27:06;100096.73;;;25.10;60.44
54369;BME280;40266;52.434;17.056;2022-08-19T19:29:54;100100.29;;;25.08;60.53
54369;BME280;40266;52.434;17.056;2022-08-19T19:32:44;100102.72;;;25.04;60.90
54369;BME280;40266;52.434;17.056;2022-08-19T19:35:30;100106.38;;;25.01;61.01
54369;BME280;40266;52.434;17.056;2022-08-19T19:38:15;100110.51;;;24.97;61.22
54369;BME280;40266;52.434;17.056;2022-08-19T19:41:01;100114.40;;;24.91;61.64
54369;BME280;40266;52.434;17.056;2022-08-19T19:43:44;100114.08;;;24.85;61.77
54369;BME280;40266;52.434;17.056;2022-08-19T19:46:54;100110.52;;;24.76;62.22
54369;BME280;40266;52.434;17.056;2022-08-19T19:49:49;100107.77;;;24.71;62.42
54369;BME280;40266;52.434;17.056;2022-08-19T19:53:06;100106.15;;;24.64;62.55
54369;BME280;40266;52.434;17.056;2022-08-19T19:55:57;100117.27;;;24.62;62.68
54369;BME280;40266;52.434;17.056;2022-08-19T19:58:40;100126.84;;;24.56;62.89
54369;BME280;40266;52.434;17.056;2022-08-19T20:01:26;100126.67;;;24.52;63.09
54369;BME280;40266;52.434;17.056;2022-08-19T20:04:13;100125.20;;;24.48;63.35
54369;BME280;40266;52.434;17.056;2022-08-19T20:07:06;100123.90;;;24.44;63.51
54369;BME280;40266;52.434;17.056;2022-08-19T20:10:30;100124.75;;;24.41;64.10
54369;BME280;40266;52.434;17.056;2022-08-19T20:13:39;100123.86;;;24.36;64.63
54369;BME280;40266;52.434;17.056;2022-08-19T20:16:25;100126.70;;;24.30;64.75
54369;BME280;40266;52.434;17.056;2022-08-19T20:19:20;100132.36;;;24.24;64.99
54369;BME280;40266;52.434;17.056;2022-08-19T20:22:04;100137.61;;;24.19;65.32
54369;BME280;40266;52.434;17.056;2022-08-19T20:25:20;100140.84;;;24.14;65.30
54369;BME280;40266;52.434;17.056;2022-08-19T20:31:00;100139.66;;;24.07;65.99
54369;BME280;40266;52.434;17.056;2022-08-19T20:33:49;100145.18;;;24.03;66.10
54369;BME280;40266;52.434;17.056;2022-08-19T20:36:52;100150.81;;;24.00;66.19
54369;BME280;40266;52.434;17.056;2022-08-19T20:39:56;100153.71;;;23.97;66.52
54369;BME280;40266;52.434;17.056;2022-08-19T20:43:05;100160.84;;;23.95;66.49
54369;BME280;40266;52.434;17.056;2022-08-19T20:46:10;100162.96;;;23.93;66.66